Time,TemperatureF,DewpointF,PressureIn,WindDirection,WindDirectionDegrees,WindSpeedMPH,WindSpeedGustMPH,Humidity,HourlyPrecipIn,Conditions,Clouds,dailyrainin,SoftwareType,DateUTC
2013-09-05 00:01:00,58.8,54.6,30.19,NNE,22,0.0,0.0,86,0.00,CLR,,0.00,WeatherDisplay:10.37,2013-09-05 04:01:00,
2013-09-05 00:02:00,58.8,54.6,30.19,NNE,22,0.0,0.0,86,0.00,CLR,,0.00,WeatherDisplay:10.37,2013-09-05 04:02:00,
2013-09-05 00:07:00,58.6,54.5,30.18,NNE,22,0.0,0.0,86,0.00,CLR,,0.00,WeatherDisplay:10.37,2013-09-05 04:07:00,
2013-09-05 00:12:00,58.5,54.3,30.18,NNE,22,0.0,0.0,86,0.00,CLR,,0.00,WeatherDisplay:10.37,2013-09-05 04:12:00,
2013-09-05 00:17:00,58.1,53.9,30.19,NNE,22,0.0,0.0,86,0.00,CLR,,0.00,WeatherDisplay:10.37,2013-09-05 04:17:00,
2013-09-05 00:22:00,58.1,54.2,30.19,NNE,22,0.0,0.0,87,0.00,CLR,,0.00,WeatherDisplay:10.37,2013-09-05 04:22:00,
2013-09-05 00:27:00,57.9,54.1,30.19,NNE,22,0.0,0.0,87,0.00,CLR,,0.00,WeatherDisplay:10.37,2013-09-05 04:27:00,
2013-09-05 00:32:00,57.9,54.1,30.19,NNE,22,0.0,0.0,87,0.00,CLR,,0.00,WeatherDisplay:10.37,2013-09-05 04:32:00,
2013-09-05 00:37:00,57.9,54.1,30.19,NNE,22,0.0,0.0,87,0.00,CLR,,0.00,WeatherDisplay:10.37,2013-09-05 04:37:00,
2013-09-05 00:42:00,57.9,54.4,30.19,NNE,22,0.0,0.0,88,0.00,CLR,,0.00,WeatherDisplay:10.37,2013-09-05 04:42:00,
2013-09-05 00:47:00,57.7,53.9,30.19,NNE,22,0.0,0.0,87,0.00,CLR,,0.00,WeatherDisplay:10.37,2013-09-05 04:47:00,
2013-09-05 00:52:00,57.7,53.9,30.19,NNE,22,0.0,0.0,87,0.00,CLR,,0.00,WeatherDisplay:10.37,2013-09-05 04:52:00,
2013-09-05 00:57:00,57.7,54.2,30.19,NNE,22,0.0,0.0,88,0.00,CLR,,0.00,WeatherDisplay:10.37,2013-09-05 04:57:00,
2013-09-05 01:02:00,57.6,54.0,30.19,NNE,22,0.0,0.0,88,0.00,CLR,,0.00,WeatherDisplay:10.37,2013-09-05 05:02:00,
2013-09-05 01:07:00,57.6,54.0,30.19,NNE,22,0.0,0.0,88,0.00,CLR,,0.00,WeatherDisplay:10.37,2013-09-05 05:07:00,
2013-09-05 01:12:00,57.4,53.9,30.19,NNE,22,0.0,0.0,88,0.00,CLR,,0.00,WeatherDisplay:10.37,2013-09-05 05:12:00,
2013-09-05 01:17:00,57.0,53.5,30.19,NNE,22,0.0,0.0,88,0.00,CLR,,0.00,WeatherDisplay:10.37,2013-09-05 05:17:00,
2013-09-05 01:22:00,57.0,53.5,30.19,NNE,22,0.0,0.0,88,0.00,CLR,,0.00,WeatherDisplay:10.37,2013-09-05 05:22:00,
2013-09-05 01:27:00,57.0,53.5,30.19,NNE,22,0.0,0.0,88,0.00,CLR,,0.00,WeatherDisplay:10.37,2013-09-05 05:27:00,
2013-09-05 01:32:00,56.8,53.3,30.19,NNE,22,0.0,0.0,88,0.00,CLR,,0.00,WeatherDisplay:10.37,2013-09-05 05:32:00,
2013-09-05 01:37:00,56.8,53.3,30.18,NNE,22,0.0,0.0,88,0.00,CLR,,0.00,WeatherDisplay:10.37,2013-09-05 05:37:00,
2013-09-05 01:42:00,56.5,53.0,30.18,NNE,22,0.0,0.0,88,0.00,CLR,,0.00,WeatherDisplay:10.37,2013-09-05 05:42:00,
2013-09-05 01:47:00,56.5,53.0,30.18,NNE,22,0.0,0.0,88,0.00,CLR,,0.00,WeatherDisplay:10.37,2013-09-05 05:47:00,
2013-09-05 01:52:00,56.5,53.0,30.18,NNE,22,0.0,0.0,88,0.00,CLR,,0.00,WeatherDisplay:10.37,2013-09-05 05:52:00,
2013-09-05 01:57:00,56.1,52.6,30.18,NNE,22,0.0,0.0,88,0.00,CLR,,0.00,WeatherDisplay:10.37,2013-09-05 05:57:00,
2013-09-05 02:02:00,56.1,52.6,30.18,NNE,22,0.0,0.0,88,0.00,CLR,,0.00,WeatherDisplay:10.37,2013-09-05 06:02:00,
2013-09-05 02:07:00,56.1,52.6,30.18,NNE,22,0.0,0.0,88,0.00,CLR,,0.00,WeatherDisplay:10.37,2013-09-05 06:07:00,
2013-09-05 02:12:00,55.9,52.7,30.17,NNE,22,0.0,0.0,89,0.00,CLR,,0.00,WeatherDisplay:10.37,2013-09-05 06:12:00,
2013-09-05 02:17:00,55.9,52.7,30.17,NNE,22,0.0,0.0,89,0.00,CLR,,0.00,WeatherDisplay:10.37,2013-09-05 06:17:00,
2013-09-05 02:22:00,55.9,52.7,30.17,NNE,22,0.0,0.0,89,0.00,CLR,,0.00,WeatherDisplay:10.37,2013-09-05 06:22:00,
2013-09-05 02:27:00,55.6,52.4,30.17,NNE,22,0.0,0.0,89,0.00,CLR,,0.00,WeatherDisplay:10.37,2013-09-05 06:27:00,
2013-09-05 02:32:00,55.6,52.4,30.18,NNE,22,0.0,0.0,89,0.00,CLR,,0.00,WeatherDisplay:10.37,2013-09-05 06:32:00,
2013-09-05 02:37:00,55.6,52.4,30.17,NNE,22,0.0,0.0,89,0.00,CLR,,0.00,WeatherDisplay:10.37,2013-09-05 06:37:00,
2013-09-05 02:42:00,55.2,52.0,30.17,NNE,22,0.0,0.0,89,0.00,CLR,,0.00,WeatherDisplay:10.37,2013-09-05 06:42:00,
2013-09-05 02:47:00,55.2,52.0,30.17,NNE,22,0.0,0.0,89,0.00,CLR,,0.00,WeatherDisplay:10.37,2013-09-05 06:47:00,
2013-09-05 02:52:00,55.2,52.0,30.18,NNE,22,0.0,0.0,89,0.00,CLR,,0.00,WeatherDisplay:10.37,2013-09-05 06:52:00,
2013-09-05 02:57:00,55.2,52.0,30.18,NNE,22,0.0,0.0,89,0.00,CLR,,0.00,WeatherDisplay:10.37,2013-09-05 06:57:00,
2013-09-05 03:02:00,55.2,52.0,30.17,NNE,22,0.0,0.0,89,0.00,CLR,,0.00,WeatherDisplay:10.37,2013-09-05 07:02:00,
2013-09-05 03:07:00,55.2,52.0,30.17,NNE,22,0.0,0.0,89,0.00,CLR,,0.00,WeatherDisplay:10.37,2013-09-05 07:07:00,
2013-09-05 03:12:00,55.0,51.9,30.17,NNE,22,0.0,0.0,89,0.00,CLR,,0.00,WeatherDisplay:10.37,2013-09-05 07:12:00,
2013-09-05 03:17:00,55.0,51.9,30.17,NNE,22,0.0,0.0,89,0.00,CLR,,0.00,WeatherDisplay:10.37,2013-09-05 07:17:00,
2013-09-05 03:22:00,55.0,51.9,30.17,NNE,22,0.0,0.0,89,0.00,CLR,,0.00,WeatherDisplay:10.37,2013-09-05 07:22:00,
2013-09-05 03:27:00,54.7,51.5,30.17,NNE,22,0.0,0.0,89,0.00,CLR,,0.00,WeatherDisplay:10.37,2013-09-05 07:27:00,
2013-09-05 03:32:00,54.7,51.5,30.18,NNE,22,0.0,0.0,89,0.00,CLR,,0.00,WeatherDisplay:10.37,2013-09-05 07:32:00,
2013-09-05 03:37:00,54.5,51.3,30.18,NNE,22,0.0,0.0,89,0.00,CLR,,0.00,WeatherDisplay:10.37,2013-09-05 07:37:00,
2013-09-05 03:42:00,54.3,51.1,30.18,NNE,22,0.0,0.0,89,0.00,CLR,,0.00,WeatherDisplay:10.37,2013-09-05 07:42:00,
2013-09-05 03:47:00,54.1,51.0,30.18,NNE,22,0.0,0.0,89,0.00,CLR,,0.00,WeatherDisplay:10.37,2013-09-05 07:47:00,
2013-09-05 03:52:00,54.0,50.8,30.18,NNE,22,0.0,0.0,89,0.00,CLR,,0.00,WeatherDisplay:10.37,2013-09-05 07:52:00,
2013-09-05 03:57:00,53.8,50.6,30.18,NNE,22,0.0,0.0,89,0.00,CLR,,0.00,WeatherDisplay:10.37,2013-09-05 07:57:00,
2013-09-05 04:02:00,53.6,50.4,30.18,NNE,22,0.0,0.0,89,0.00,CLR,,0.00,WeatherDisplay:10.37,2013-09-05 08:02:00,
2013-09-05 04:07:00,53.4,50.3,30.18,NNE,22,0.0,0.0,89,0.00,CLR,,0.00,WeatherDisplay:10.37,2013-09-05 08:07:00,
2013-09-05 04:12:00,53.4,50.3,30.18,NNE,22,0.0,0.0,89,0.00,CLR,,0.00,WeatherDisplay:10.37,2013-09-05 08:12:00,
2013-09-05 04:17:00,53.4,50.3,30.18,NNE,22,0.0,0.0,89,0.00,CLR,,0.00,WeatherDisplay:10.37,2013-09-05 08:17:00,
2013-09-05 04:22:00,53.4,50.3,30.18,NNE,22,0.0,0.0,89,0.00,CLR,,0.00,WeatherDisplay:10.37,2013-09-05 08:22:00,
2013-09-05 04:27:00,53.4,50.3,30.18,NNE,22,0.0,0.0,89,0.00,CLR,,0.00,WeatherDisplay:10.37,2013-09-05 08:27:00,
2013-09-05 04:32:00,53.4,50.3,30.18,NNE,22,0.0,0.0,89,0.00,CLR,,0.00,WeatherDisplay:10.37,2013-09-05 08:32:00,
2013-09-05 04:37:00,53.4,50.6,30.18,NNE,22,0.0,0.0,90,0.00,CLR,,0.00,WeatherDisplay:10.37,2013-09-05 08:37:00,
2013-09-05 04:42:00,53.4,50.6,30.18,NNE,22,0.0,0.0,90,0.00,CLR,,0.00,WeatherDisplay:10.37,2013-09-05 08:42:00,
2013-09-05 04:47:00,53.2,50.4,30.18,NNE,22,0.0,0.0,90,0.00,CLR,,0.00,WeatherDisplay:10.37,2013-09-05 08:47:00,
2013-09-05 04:52:00,53.2,50.4,30.18,NNE,22,0.0,0.0,90,0.00,CLR,,0.00,WeatherDisplay:10.37,2013-09-05 08:52:00,
2013-09-05 04:57:00,53.2,50.4,30.18,NNE,22,0.0,0.0,90,0.00,CLR,,0.00,WeatherDisplay:10.37,2013-09-05 08:57:00,
2013-09-05 05:02:00,53.1,50.2,30.18,NNE,22,0.0,0.0,90,0.00,CLR,,0.00,WeatherDisplay:10.37,2013-09-05 09:02:00,
2013-09-05 05:07:00,53.1,50.2,30.18,NNE,22,0.0,0.0,90,0.00,CLR,,0.00,WeatherDisplay:10.37,2013-09-05 09:07:00,
2013-09-05 05:12:00,52.9,50.0,30.18,NNE,22,0.0,0.0,90,0.00,CLR,,0.00,WeatherDisplay:10.37,2013-09-05 09:12:00,
2013-09-05 05:17:00,52.9,50.0,30.18,NNE,22,0.0,0.0,90,0.00,CLR,,0.00,WeatherDisplay:10.37,2013-09-05 09:17:00,
2013-09-05 05:22:00,52.9,50.0,30.18,NNE,22,0.0,0.0,90,0.00,CLR,,0.00,WeatherDisplay:10.37,2013-09-05 09:22:00,
2013-09-05 05:27:00,52.9,50.0,30.19,NNE,22,0.0,0.0,90,0.00,CLR,,0.00,WeatherDisplay:10.37,2013-09-05 09:27:00,
2013-09-05 05:32:00,52.9,50.0,30.18,NNE,22,0.0,0.0,90,0.00,CLR,,0.00,WeatherDisplay:10.37,2013-09-05 09:32:00,
2013-09-05 05:37:00,52.9,50.0,30.19,NNE,22,0.0,0.0,90,0.00,CLR,,0.00,WeatherDisplay:10.37,2013-09-05 09:37:00,
2013-09-05 05:42:00,52.7,49.8,30.19,NNE,22,0.0,0.0,90,0.00,CLR,,0.00,WeatherDisplay:10.37,2013-09-05 09:42:00,
2013-09-05 05:47:00,52.5,49.7,30.18,NNE,22,0.0,0.0,90,0.00,CLR,,0.00,WeatherDisplay:10.37,2013-09-05 09:47:00,
2013-09-05 05:52:00,52.5,50.0,30.18,NNE,22,0.0,0.0,91,0.00,CLR,,0.00,WeatherDisplay:10.37,2013-09-05 09:52:00,
2013-09-05 05:57:00,52.3,49.8,30.19,NNE,22,0.0,0.0,91,0.00,CLR,,0.00,WeatherDisplay:10.37,2013-09-05 09:57:00,
2013-09-05 06:02:00,52.3,49.8,30.19,NNE,22,0.0,0.0,91,0.00,CLR,,0.00,WeatherDisplay:10.37,2013-09-05 10:02:00,
2013-09-05 06:07:00,52.2,49.6,30.19,NNE,22,0.0,0.0,91,0.00,CLR,,0.00,WeatherDisplay:10.37,2013-09-05 10:07:00,
2013-09-05 06:12:00,52.2,49.6,30.19,NNE,22,0.0,0.0,91,0.00,CLR,,0.00,WeatherDisplay:10.37,2013-09-05 10:12:00,
2013-09-05 06:17:00,52.2,49.6,30.19,NNE,22,0.0,0.0,91,0.00,CLR,,0.00,WeatherDisplay:10.37,2013-09-05 10:17:00,
2013-09-05 06:22:00,52.2,49.6,30.19,NNE,22,0.0,0.0,91,0.00,CLR,,0.00,WeatherDisplay:10.37,2013-09-05 10:22:00,
2013-09-05 06:27:00,52.2,49.6,30.19,NNE,22,0.0,0.0,91,0.00,CLR,,0.00,WeatherDisplay:10.37,2013-09-05 10:27:00,
2013-09-05 06:32:00,52.0,49.4,30.19,NNE,22,0.0,0.0,91,0.00,CLR,,0.00,WeatherDisplay:10.37,2013-09-05 10:32:00,
2013-09-05 06:37:00,52.0,49.4,30.19,NNE,22,0.0,0.0,91,0.00,CLR,,0.00,WeatherDisplay:10.37,2013-09-05 10:37:00,
2013-09-05 06:42:00,51.6,49.1,30.19,NNE,22,0.0,0.0,91,0.00,CLR,,0.00,WeatherDisplay:10.37,2013-09-05 10:42:00,
2013-09-05 06:47:00,51.6,49.1,30.19,NNE,22,0.0,0.0,91,0.00,CLR,,0.00,WeatherDisplay:10.37,2013-09-05 10:47:00,
2013-09-05 06:52:00,51.6,49.1,30.19,NNE,22,0.0,0.0,91,0.00,CLR,,0.00,WeatherDisplay:10.37,2013-09-05 10:52:00,
2013-09-05 06:57:00,51.6,49.1,30.19,NNE,22,0.0,0.0,91,0.00,CLR,,0.00,WeatherDisplay:10.37,2013-09-05 10:57:00,
2013-09-05 07:02:00,51.6,49.1,30.19,NNE,22,0.0,0.0,91,0.00,CLR,,0.00,WeatherDisplay:10.37,2013-09-05 11:02:00,
2013-09-05 07:07:00,51.6,49.1,30.19,NNE,22,0.0,0.0,91,0.00,CLR,,0.00,WeatherDisplay:10.37,2013-09-05 11:07:00,
2013-09-05 07:12:00,51.4,48.9,30.20,NNE,22,0.0,0.0,91,0.00,CLR,,0.00,WeatherDisplay:10.37,2013-09-05 11:12:00,
2013-09-05 07:17:00,51.4,48.9,30.19,NNE,22,0.0,0.0,91,0.00,CLR,,0.00,WeatherDisplay:10.37,2013-09-05 11:17:00,
2013-09-05 07:22:00,51.4,48.9,30.20,NNE,22,0.0,0.0,91,0.00,CLR,,0.00,WeatherDisplay:10.37,2013-09-05 11:22:00,
2013-09-05 07:27:00,51.4,48.9,30.20,NNE,22,0.0,0.0,91,0.00,CLR,,0.00,WeatherDisplay:10.37,2013-09-05 11:27:00,
2013-09-05 07:32:00,51.4,48.9,30.20,NNE,22,0.0,0.0,91,0.00,CLR,,0.00,WeatherDisplay:10.37,2013-09-05 11:32:00,
2013-09-05 07:37:00,51.4,48.9,30.19,NNE,22,0.0,0.0,91,0.00,CLR,,0.00,WeatherDisplay:10.37,2013-09-05 11:37:00,
2013-09-05 07:42:00,51.4,48.9,30.20,NNE,22,0.0,0.0,91,0.00,CLR,,0.00,WeatherDisplay:10.37,2013-09-05 11:42:00,
2013-09-05 07:47:00,51.4,48.9,30.20,NNE,22,0.0,0.0,91,0.00,CLR,,0.00,WeatherDisplay:10.37,2013-09-05 11:47:00,
2013-09-05 07:52:00,51.4,48.9,30.20,NNE,22,0.0,0.0,91,0.00,CLR,,0.00,WeatherDisplay:10.37,2013-09-05 11:52:00,
2013-09-05 07:57:00,51.6,49.1,30.20,NNE,22,0.0,0.0,91,0.00,CLR,,0.00,WeatherDisplay:10.37,2013-09-05 11:57:00,
2013-09-05 08:02:00,51.6,49.1,30.21,NNE,22,0.0,0.0,91,0.00,CLR,,0.00,WeatherDisplay:10.37,2013-09-05 12:02:00,
2013-09-05 08:07:00,52.0,49.4,30.20,NNE,22,0.0,0.0,91,0.00,CLR,,0.00,WeatherDisplay:10.37,2013-09-05 12:07:00,
2013-09-05 08:12:00,52.2,49.6,30.21,NNE,22,0.0,0.0,91,0.00,CLR,,0.00,WeatherDisplay:10.37,2013-09-05 12:12:00,
2013-09-05 08:18:00,52.3,49.8,30.21,NNE,22,0.0,0.0,91,0.00,CLR,,0.00,WeatherDisplay:10.37,2013-09-05 12:18:00,
2013-09-05 08:23:00,52.5,50.0,30.21,NNE,22,0.0,0.0,91,0.00,CLR,,0.00,WeatherDisplay:10.37,2013-09-05 12:23:00,
2013-09-05 08:28:00,52.9,50.3,30.21,NNE,22,0.0,0.0,91,0.00,CLR,,0.00,WeatherDisplay:10.37,2013-09-05 12:28:00,
2013-09-05 08:33:00,53.2,51.0,30.21,NNE,22,0.0,0.0,92,0.00,CLR,,0.00,WeatherDisplay:10.37,2013-09-05 12:33:00,
2013-09-05 08:38:00,53.4,51.2,30.20,NNE,22,0.0,0.0,92,0.00,CLR,,0.00,WeatherDisplay:10.37,2013-09-05 12:38:00,
2013-09-05 08:43:00,53.8,51.5,30.21,NNE,22,0.0,0.0,92,0.00,CLR,,0.00,WeatherDisplay:10.37,2013-09-05 12:43:00,
2013-09-05 08:48:00,54.0,51.7,30.21,NNE,22,0.0,0.0,92,0.00,CLR,,0.00,WeatherDisplay:10.37,2013-09-05 12:48:00,
2013-09-05 08:53:00,54.5,52.2,30.21,NNE,22,0.0,0.0,92,0.00,CLR,,0.00,WeatherDisplay:10.37,2013-09-05 12:53:00,
2013-09-05 08:58:00,55.2,52.9,30.21,NNE,22,0.0,0.0,92,0.00,CLR,,0.00,WeatherDisplay:10.37,2013-09-05 12:58:00,
2013-09-05 09:03:00,56.1,53.8,30.21,NNE,22,0.0,0.0,92,0.00,CLR,,0.00,WeatherDisplay:10.37,2013-09-05 13:03:00,
2013-09-05 09:08:00,57.4,55.1,30.21,NNE,22,0.0,0.0,92,0.00,CLR,,0.00,WeatherDisplay:10.37,2013-09-05 13:08:00,
2013-09-05 09:13:00,58.8,56.2,30.21,NNE,22,0.0,0.0,91,0.00,CLR,,0.00,WeatherDisplay:10.37,2013-09-05 13:13:00,
2013-09-05 09:18:00,59.5,56.9,30.21,NNE,22,0.0,0.0,91,0.00,CLR,,0.00,WeatherDisplay:10.37,2013-09-05 13:18:00,
2013-09-05 09:23:00,60.4,57.8,30.22,NNE,22,0.0,0.0,91,0.00,CLR,,0.00,WeatherDisplay:10.37,2013-09-05 13:23:00,
2013-09-05 09:28:00,61.0,58.3,30.22,NNE,22,0.0,0.0,91,0.00,CLR,,0.00,WeatherDisplay:10.37,2013-09-05 13:28:00,
2013-09-05 09:33:00,61.5,58.9,30.22,NNE,22,0.0,0.0,91,0.00,CLR,,0.00,WeatherDisplay:10.37,2013-09-05 13:33:00,
2013-09-05 09:38:00,62.2,59.6,30.22,NNE,22,0.0,0.0,91,0.00,CLR,,0.00,WeatherDisplay:10.37,2013-09-05 13:38:00,
2013-09-05 09:43:00,62.6,59.6,30.21,NNE,22,0.0,0.0,90,0.00,CLR,,0.00,WeatherDisplay:10.37,2013-09-05 13:43:00,
2013-09-05 09:48:00,63.7,60.4,30.21,NNE,22,0.0,0.0,89,0.00,CLR,,0.00,WeatherDisplay:10.37,2013-09-05 13:48:00,
2013-09-05 09:53:00,64.2,60.6,30.21,NNE,22,0.0,0.0,88,0.00,CLR,,0.00,WeatherDisplay:10.37,2013-09-05 13:53:00,
2013-09-05 09:58:00,64.8,60.8,30.22,NNE,22,0.0,0.0,87,0.00,CLR,,0.00,WeatherDisplay:10.37,2013-09-05 13:58:00,
2013-09-05 10:03:00,64.9,61.0,30.22,NNE,22,0.0,0.0,87,0.00,CLR,,0.00,WeatherDisplay:10.37,2013-09-05 14:03:00,
2013-09-05 10:08:00,65.8,61.9,30.22,NNE,22,0.0,0.0,87,0.00,CLR,,0.00,WeatherDisplay:10.37,2013-09-05 14:08:00,
2013-09-05 10:13:00,66.2,61.6,30.22,NNE,22,0.0,0.0,85,0.00,CLR,,0.00,WeatherDisplay:10.37,2013-09-05 14:13:00,
2013-09-05 10:18:00,66.6,61.6,30.22,NNE,22,0.0,0.0,84,0.00,CLR,,0.00,WeatherDisplay:10.37,2013-09-05 14:18:00,
2013-09-05 10:23:00,66.9,61.6,30.22,NNE,22,0.0,0.0,83,0.00,CLR,,0.00,WeatherDisplay:10.37,2013-09-05 14:23:00,
2013-09-05 10:28:00,67.6,61.6,30.22,NNE,22,0.0,0.0,81,0.00,CLR,,0.00,WeatherDisplay:10.37,2013-09-05 14:28:00,
2013-09-05 10:33:00,67.8,61.8,30.22,NNE,22,0.0,0.0,81,0.00,CLR,,0.00,WeatherDisplay:10.37,2013-09-05 14:33:00,
2013-09-05 10:38:00,68.2,62.1,30.22,NNE,22,0.0,0.0,81,0.00,CLR,,0.00,WeatherDisplay:10.37,2013-09-05 14:38:00,
2013-09-05 10:43:00,68.5,62.1,30.22,NNE,22,0.0,0.0,80,0.00,CLR,,0.00,WeatherDisplay:10.37,2013-09-05 14:43:00,
2013-09-05 10:48:00,68.7,61.9,30.21,NNE,22,0.0,0.0,79,0.00,CLR,,0.00,WeatherDisplay:10.37,2013-09-05 14:48:00,
2013-09-05 10:53:00,69.3,62.5,30.21,NNE,22,0.0,0.0,79,0.00,CLR,,0.00,WeatherDisplay:10.37,2013-09-05 14:53:00,
2013-09-05 10:58:00,69.6,62.5,30.21,NNE,22,0.0,0.0,78,0.00,CLR,,0.00,WeatherDisplay:10.37,2013-09-05 14:58:00,
2013-09-05 11:03:00,69.8,62.3,30.22,NNE,22,0.0,0.0,77,0.00,CLR,,0.00,WeatherDisplay:10.37,2013-09-05 15:03:00,
2013-09-05 11:08:00,70.9,63.3,30.21,NNE,22,0.0,0.0,77,0.00,CLR,,0.00,WeatherDisplay:10.37,2013-09-05 15:08:00,
2013-09-05 11:13:00,72.3,63.9,30.22,NNE,22,0.0,0.0,75,0.00,CLR,,0.00,WeatherDisplay:10.37,2013-09-05 15:13:00,
2013-09-05 11:18:00,73.2,63.6,30.22,NNE,22,0.0,0.0,72,0.00,CLR,,0.00,WeatherDisplay:10.37,2013-09-05 15:18:00,
2013-09-05 11:23:00,73.2,63.2,30.22,NNE,22,0.0,0.0,71,0.00,CLR,,0.00,WeatherDisplay:10.37,2013-09-05 15:23:00,
2013-09-05 11:28:00,73.0,63.1,30.22,NNE,22,0.0,0.0,71,0.00,CLR,,0.00,WeatherDisplay:10.37,2013-09-05 15:28:00,
2013-09-05 11:33:00,73.2,63.2,30.22,NNE,22,0.0,0.0,71,0.00,CLR,,0.00,WeatherDisplay:10.37,2013-09-05 15:33:00,
2013-09-05 11:38:00,74.1,63.7,30.22,NNE,22,0.0,0.0,70,0.00,CLR,,0.00,WeatherDisplay:10.37,2013-09-05 15:38:00,
2013-09-05 11:43:00,74.7,63.8,30.22,NNE,22,0.0,0.0,69,0.00,CLR,,0.00,WeatherDisplay:10.37,2013-09-05 15:43:00,
2013-09-05 11:48:00,74.7,63.4,30.22,NNE,22,0.0,0.0,68,0.00,CLR,,0.00,WeatherDisplay:10.37,2013-09-05 15:48:00,
2013-09-05 11:53:00,74.3,63.1,30.22,NNE,22,0.0,0.0,68,0.00,CLR,,0.00,WeatherDisplay:10.37,2013-09-05 15:53:00,
2013-09-05 11:58:00,73.9,62.7,30.22,NNE,22,0.0,0.0,68,0.00,CLR,,0.00,WeatherDisplay:10.37,2013-09-05 15:58:00,
2013-09-05 12:03:00,73.8,62.5,30.22,NNE,22,0.0,0.0,68,0.00,CLR,,0.00,WeatherDisplay:10.37,2013-09-05 16:03:00,
2013-09-05 12:08:00,73.8,62.5,30.22,NNE,22,0.0,0.0,68,0.00,CLR,,0.00,WeatherDisplay:10.37,2013-09-05 16:08:00,
2013-09-05 12:13:00,73.6,62.4,30.22,NNE,22,0.0,0.0,68,0.00,CLR,,0.00,WeatherDisplay:10.37,2013-09-05 16:13:00,
2013-09-05 12:18:00,73.6,62.4,30.22,NNE,22,0.0,0.0,68,0.00,CLR,,0.00,WeatherDisplay:10.37,2013-09-05 16:18:00,
2013-09-05 12:23:00,73.9,62.7,30.22,NNE,22,0.0,0.0,68,0.00,CLR,,0.00,WeatherDisplay:10.37,2013-09-05 16:23:00,
2013-09-05 12:28:00,73.9,62.3,30.22,NNE,22,0.0,0.0,67,0.00,CLR,,0.00,WeatherDisplay:10.37,2013-09-05 16:28:00,
2013-09-05 12:33:00,73.9,61.9,30.22,NNE,22,0.0,0.0,66,0.00,CLR,,0.00,WeatherDisplay:10.37,2013-09-05 16:33:00,
2013-09-05 12:38:00,74.1,62.0,30.22,NNE,22,0.0,0.0,66,0.00,CLR,,0.00,WeatherDisplay:10.37,2013-09-05 16:38:00,
2013-09-05 12:43:00,74.1,62.0,30.22,NNE,22,0.0,0.0,66,0.00,CLR,,0.00,WeatherDisplay:10.37,2013-09-05 16:43:00,
2013-09-05 12:48:00,74.5,62.4,30.21,NNE,22,0.0,0.0,66,0.00,CLR,,0.00,WeatherDisplay:10.37,2013-09-05 16:48:00,
2013-09-05 12:53:00,74.7,62.5,30.21,NNE,22,0.0,0.0,66,0.00,CLR,,0.00,WeatherDisplay:10.37,2013-09-05 16:53:00,
2013-09-05 12:58:00,74.8,62.7,30.21,NNE,22,0.0,0.0,66,0.00,CLR,,0.00,WeatherDisplay:10.37,2013-09-05 16:58:00,
2013-09-05 13:03:00,75.4,62.4,30.21,NNE,22,0.0,0.0,64,0.00,CLR,,0.00,WeatherDisplay:10.37,2013-09-05 17:03:00,
2013-09-05 13:08:00,75.4,61.9,30.21,NNE,22,0.0,0.0,63,0.00,CLR,,0.00,WeatherDisplay:10.37,2013-09-05 17:08:00,
2013-09-05 13:13:00,76.8,63.3,30.21,NNE,22,0.0,0.0,63,0.00,CLR,,0.00,WeatherDisplay:10.37,2013-09-05 17:13:00,
2013-09-05 13:18:00,78.6,63.6,30.20,NNE,22,0.0,0.0,60,0.00,CLR,,0.00,WeatherDisplay:10.37,2013-09-05 17:18:00,
2013-09-05 13:23:00,79.5,62.9,30.21,NNE,22,0.0,0.0,57,0.00,CLR,,0.00,WeatherDisplay:10.37,2013-09-05 17:23:00,
2013-09-05 13:28:00,79.5,62.9,30.21,NNE,22,0.0,0.0,57,0.00,CLR,,0.00,WeatherDisplay:10.37,2013-09-05 17:28:00,
2013-09-05 13:33:00,79.3,63.3,30.20,NNE,22,0.0,0.0,58,0.00,CLR,,0.00,WeatherDisplay:10.37,2013-09-05 17:33:00,
2013-09-05 13:38:00,79.5,62.4,30.21,NNE,22,0.0,0.0,56,0.00,CLR,,0.00,WeatherDisplay:10.37,2013-09-05 17:38:00,
2013-09-05 13:43:00,79.9,62.8,30.21,NNE,22,0.0,0.0,56,0.00,CLR,,0.00,WeatherDisplay:10.37,2013-09-05 17:43:00,
2013-09-05 13:48:00,79.3,60.7,30.20,NNE,22,0.0,0.0,53,0.00,CLR,,0.00,WeatherDisplay:10.37,2013-09-05 17:48:00,
2013-09-05 13:53:00,79.0,60.9,30.20,NNE,22,0.0,0.0,54,0.00,CLR,,0.00,WeatherDisplay:10.37,2013-09-05 17:53:00,
2013-09-05 13:58:00,79.5,61.4,30.20,NNE,22,0.0,0.0,54,0.00,CLR,,0.00,WeatherDisplay:10.37,2013-09-05 17:58:00,
2013-09-05 14:03:00,79.5,61.4,30.20,NNE,22,0.0,0.0,54,0.00,CLR,,0.00,WeatherDisplay:10.37,2013-09-05 18:03:00,
2013-09-05 14:08:00,79.5,61.4,30.20,NNE,22,0.0,0.0,54,0.00,CLR,,0.00,WeatherDisplay:10.37,2013-09-05 18:08:00,
2013-09-05 14:13:00,79.3,61.2,30.20,NNE,22,0.0,0.0,54,0.00,CLR,,0.00,WeatherDisplay:10.37,2013-09-05 18:13:00,
2013-09-05 14:18:00,79.3,61.8,30.19,NNE,22,0.0,0.0,55,0.00,CLR,,0.00,WeatherDisplay:10.37,2013-09-05 18:18:00,
2013-09-05 14:23:00,79.5,61.9,30.20,NNE,22,0.0,0.0,55,0.00,CLR,,0.00,WeatherDisplay:10.37,2013-09-05 18:23:00,
2013-09-05 14:28:00,81.1,63.4,30.20,NNE,22,0.0,0.0,55,0.00,CLR,,0.00,WeatherDisplay:10.37,2013-09-05 18:28:00,
2013-09-05 14:33:00,82.9,64.0,30.19,NNE,22,0.0,0.0,53,0.00,CLR,,0.00,WeatherDisplay:10.37,2013-09-05 18:33:00,
2013-09-05 14:38:00,83.1,63.7,30.19,NNE,22,0.0,0.0,52,0.00,CLR,,0.00,WeatherDisplay:10.37,2013-09-05 18:38:00,
2013-09-05 14:43:00,83.1,63.7,30.19,NNE,22,0.0,0.0,52,0.00,CLR,,0.00,WeatherDisplay:10.37,2013-09-05 18:43:00,
2013-09-05 14:48:00,82.6,62.6,30.19,NNE,22,0.0,0.0,51,0.00,CLR,,0.00,WeatherDisplay:10.37,2013-09-05 18:48:00,
2013-09-05 14:53:00,82.0,63.2,30.19,NNE,22,0.0,0.0,53,0.00,CLR,,0.00,WeatherDisplay:10.37,2013-09-05 18:53:00,
2013-09-05 14:58:00,81.7,62.3,30.19,NNE,22,0.0,0.0,52,0.00,CLR,,0.00,WeatherDisplay:10.37,2013-09-05 18:58:00,
2013-09-05 15:03:00,81.5,62.7,30.19,NNE,22,0.0,0.0,53,0.00,CLR,,0.00,WeatherDisplay:10.37,2013-09-05 19:03:00,
2013-09-05 15:08:00,81.0,61.7,30.19,NNE,22,0.0,0.0,52,0.00,CLR,,0.00,WeatherDisplay:10.37,2013-09-05 19:08:00,
2013-09-05 15:13:00,80.6,61.9,30.19,NNE,22,0.0,0.0,53,0.00,CLR,,0.00,WeatherDisplay:10.37,2013-09-05 19:13:00,
2013-09-05 15:18:00,79.5,61.4,30.19,NNE,22,0.0,0.0,54,0.00,CLR,,0.00,WeatherDisplay:10.37,2013-09-05 19:18:00,
2013-09-05 15:23:00,79.3,61.8,30.19,NNE,22,0.0,0.0,55,0.00,CLR,,0.00,WeatherDisplay:10.37,2013-09-05 19:23:00,
2013-09-05 15:28:00,79.0,61.4,30.19,NNE,22,0.0,0.0,55,0.00,CLR,,0.00,WeatherDisplay:10.37,2013-09-05 19:28:00,
2013-09-05 15:33:00,78.6,61.1,30.19,NNE,22,0.0,0.0,55,0.00,CLR,,0.00,WeatherDisplay:10.37,2013-09-05 19:33:00,
2013-09-05 15:38:00,78.4,61.9,30.18,NNE,22,0.0,0.0,57,0.00,CLR,,0.00,WeatherDisplay:10.37,2013-09-05 19:38:00,
2013-09-05 15:43:00,78.6,62.1,30.18,NNE,22,0.0,0.0,57,0.00,CLR,,0.00,WeatherDisplay:10.37,2013-09-05 19:43:00,
2013-09-05 15:48:00,78.6,62.6,30.18,NNE,22,0.0,0.0,58,0.00,CLR,,0.00,WeatherDisplay:10.37,2013-09-05 19:48:00,
2013-09-05 15:53:00,79.7,63.6,30.18,NNE,22,0.0,0.0,58,0.00,CLR,,0.00,WeatherDisplay:10.37,2013-09-05 19:53:00,
2013-09-05 15:58:00,80.6,64.0,30.18,NNE,22,0.0,0.0,57,0.00,CLR,,0.00,WeatherDisplay:10.37,2013-09-05 19:58:00,
2013-09-05 16:03:00,82.0,64.3,30.18,NNE,22,0.0,0.0,55,0.00,CLR,,0.00,WeatherDisplay:10.37,2013-09-05 20:03:00,
2013-09-05 16:08:00,81.7,63.4,30.18,NNE,22,0.0,0.0,54,0.00,CLR,,0.00,WeatherDisplay:10.37,2013-09-05 20:08:00,
2013-09-05 16:13:00,81.3,63.1,30.18,NNE,22,0.0,0.0,54,0.00,CLR,,0.00,WeatherDisplay:10.37,2013-09-05 20:13:00,
2013-09-05 16:18:00,78.6,61.1,30.18,NNE,22,0.0,0.0,55,0.00,CLR,,0.00,WeatherDisplay:10.37,2013-09-05 20:18:00,
2013-09-05 16:23:00,77.9,60.9,30.18,NNE,22,0.0,0.0,56,0.00,CLR,,0.00,WeatherDisplay:10.37,2013-09-05 20:23:00,
2013-09-05 16:28:00,77.2,60.8,30.18,NNE,22,0.0,0.0,57,0.00,CLR,,0.00,WeatherDisplay:10.37,2013-09-05 20:28:00,
2013-09-05 16:33:00,77.4,61.4,30.18,NNE,22,0.0,0.0,58,0.00,CLR,,0.00,WeatherDisplay:10.37,2013-09-05 20:33:00,
2013-09-05 16:39:00,78.1,61.6,30.18,NNE,22,0.0,0.0,57,0.00,CLR,,0.00,WeatherDisplay:10.37,2013-09-05 20:39:00,
2013-09-05 16:44:00,78.6,61.6,30.18,NNE,22,0.0,0.0,56,0.00,CLR,,0.00,WeatherDisplay:10.37,2013-09-05 20:44:00,
2013-09-05 16:49:00,78.6,61.6,30.18,NNE,22,0.0,0.0,56,0.00,CLR,,0.00,WeatherDisplay:10.37,2013-09-05 20:49:00,
2013-09-05 16:54:00,78.6,61.6,30.18,NNE,22,0.0,0.0,56,0.00,CLR,,0.00,WeatherDisplay:10.37,2013-09-05 20:54:00,
2013-09-05 16:59:00,77.7,60.8,30.18,NNE,22,0.0,0.0,56,0.00,CLR,,0.00,WeatherDisplay:10.37,2013-09-05 20:59:00,
2013-09-05 17:04:00,76.8,59.9,30.18,NNE,22,0.0,0.0,56,0.00,CLR,,0.00,WeatherDisplay:10.37,2013-09-05 21:04:00,
2013-09-05 17:09:00,75.7,59.4,30.18,NNE,22,0.0,0.0,57,0.00,CLR,,0.00,WeatherDisplay:10.37,2013-09-05 21:09:00,
2013-09-05 17:14:00,75.0,59.2,30.18,NNE,22,0.0,0.0,58,0.00,CLR,,0.00,WeatherDisplay:10.37,2013-09-05 21:14:00,
2013-09-05 17:19:00,74.5,59.2,30.18,NNE,22,0.0,0.0,59,0.00,CLR,,0.00,WeatherDisplay:10.37,2013-09-05 21:19:00,
2013-09-05 17:24:00,74.1,59.8,30.18,NNE,22,0.0,0.0,61,0.00,CLR,,0.00,WeatherDisplay:10.37,2013-09-05 21:24:00,
2013-09-05 17:29:00,73.8,59.9,30.18,NNE,22,0.0,0.0,62,0.00,CLR,,0.00,WeatherDisplay:10.37,2013-09-05 21:29:00,
2013-09-05 17:34:00,73.8,59.9,30.18,NNE,22,0.0,0.0,62,0.00,CLR,,0.00,WeatherDisplay:10.37,2013-09-05 21:34:00,
2013-09-05 17:39:00,74.1,60.7,30.18,NNE,22,0.0,0.0,63,0.00,CLR,,0.00,WeatherDisplay:10.37,2013-09-05 21:39:00,
2013-09-05 17:44:00,75.7,61.8,30.18,NNE,22,0.0,0.0,62,0.00,CLR,,0.00,WeatherDisplay:10.37,2013-09-05 21:44:00,
2013-09-05 17:49:00,75.9,61.0,30.18,NNE,22,0.0,0.0,60,0.00,CLR,,0.00,WeatherDisplay:10.37,2013-09-05 21:49:00,
2013-09-05 17:54:00,76.1,61.2,30.18,NNE,22,0.0,0.0,60,0.00,CLR,,0.00,WeatherDisplay:10.37,2013-09-05 21:54:00,
2013-09-05 17:59:00,76.5,61.5,30.18,NNE,22,0.0,0.0,60,0.00,CLR,,0.00,WeatherDisplay:10.37,2013-09-05 21:59:00,
2013-09-05 18:04:00,76.5,61.5,30.18,NNE,22,0.0,0.0,60,0.00,CLR,,0.00,WeatherDisplay:10.37,2013-09-05 22:04:00,
2013-09-05 18:09:00,76.5,61.5,30.18,NNE,22,0.0,0.0,60,0.00,CLR,,0.00,WeatherDisplay:10.37,2013-09-05 22:09:00,
2013-09-05 18:14:00,76.6,61.7,30.18,NNE,22,0.0,0.0,60,0.00,CLR,,0.00,WeatherDisplay:10.37,2013-09-05 22:14:00,
2013-09-05 18:19:00,76.6,61.7,30.18,NNE,22,0.0,0.0,60,0.00,CLR,,0.00,WeatherDisplay:10.37,2013-09-05 22:19:00,
2013-09-05 18:24:00,76.5,61.5,30.18,NNE,22,0.0,0.0,60,0.00,CLR,,0.00,WeatherDisplay:10.37,2013-09-05 22:24:00,
2013-09-05 18:29:00,76.3,60.9,30.17,NNE,22,0.0,0.0,59,0.00,CLR,,0.00,WeatherDisplay:10.37,2013-09-05 22:29:00,
2013-09-05 18:34:00,76.3,60.9,30.17,NNE,22,0.0,0.0,59,0.00,CLR,,0.00,WeatherDisplay:10.37,2013-09-05 22:34:00,
2013-09-05 18:39:00,76.6,61.7,30.18,NNE,22,0.0,0.0,60,0.00,CLR,,0.00,WeatherDisplay:10.37,2013-09-05 22:39:00,
2013-09-05 18:44:00,76.6,61.7,30.17,NNE,22,0.0,0.0,60,0.00,CLR,,0.00,WeatherDisplay:10.37,2013-09-05 22:44:00,
2013-09-05 18:49:00,76.1,61.2,30.17,NNE,22,0.0,0.0,60,0.00,CLR,,0.00,WeatherDisplay:10.37,2013-09-05 22:49:00,
2013-09-05 18:54:00,75.4,60.5,30.17,NNE,22,0.0,0.0,60,0.00,CLR,,0.00,WeatherDisplay:10.37,2013-09-05 22:54:00,
2013-09-05 18:59:00,74.5,60.1,30.17,NNE,22,0.0,0.0,61,0.00,CLR,,0.00,WeatherDisplay:10.37,2013-09-05 22:59:00,
2013-09-05 19:04:00,74.3,60.4,30.17,NNE,22,0.0,0.0,62,0.00,CLR,,0.00,WeatherDisplay:10.37,2013-09-05 23:04:00,
2013-09-05 19:09:00,73.8,59.9,30.17,NNE,22,0.0,0.0,62,0.00,CLR,,0.00,WeatherDisplay:10.37,2013-09-05 23:09:00,
2013-09-05 19:14:00,73.4,60.0,30.17,NNE,22,0.0,0.0,63,0.00,CLR,,0.00,WeatherDisplay:10.37,2013-09-05 23:14:00,
2013-09-05 19:19:00,72.9,59.5,30.17,NNE,22,0.0,0.0,63,0.00,CLR,,0.00,WeatherDisplay:10.37,2013-09-05 23:19:00,
2013-09-05 19:24:00,72.5,59.6,30.17,NNE,22,0.0,0.0,64,0.00,CLR,,0.00,WeatherDisplay:10.37,2013-09-05 23:24:00,
2013-09-05 19:29:00,72.1,59.7,30.17,NNE,22,0.0,0.0,65,0.00,CLR,,0.00,WeatherDisplay:10.37,2013-09-05 23:29:00,
2013-09-05 19:34:00,71.8,59.8,30.17,NNE,22,0.0,0.0,66,0.00,CLR,,0.00,WeatherDisplay:10.37,2013-09-05 23:34:00,
2013-09-05 19:39:00,71.2,59.3,30.17,NNE,22,0.0,0.0,66,0.00,CLR,,0.00,WeatherDisplay:10.37,2013-09-05 23:39:00,
2013-09-05 19:44:00,70.9,59.4,30.17,NNE,22,0.0,0.0,67,0.00,CLR,,0.00,WeatherDisplay:10.37,2013-09-05 23:44:00,
2013-09-05 19:49:00,70.5,59.0,30.17,NNE,22,0.0,0.0,67,0.00,CLR,,0.00,WeatherDisplay:10.37,2013-09-05 23:49:00,
2013-09-05 19:54:00,70.2,59.1,30.17,NNE,22,0.0,0.0,68,0.00,CLR,,0.00,WeatherDisplay:10.37,2013-09-05 23:54:00,
2013-09-05 19:59:00,69.8,58.8,30.17,NNE,22,0.0,0.0,68,0.00,CLR,,0.00,WeatherDisplay:10.37,2013-09-05 23:59:00,
2013-09-05 20:04:00,69.6,59.0,30.18,NNE,22,0.0,0.0,69,0.00,CLR,,0.00,WeatherDisplay:10.37,2013-09-06 00:04:00,
2013-09-05 20:09:00,69.3,58.7,30.18,NNE,22,0.0,0.0,69,0.00,CLR,,0.00,WeatherDisplay:10.37,2013-09-06 00:09:00,
2013-09-05 20:14:00,68.9,58.7,30.18,NNE,22,0.0,0.0,70,0.00,CLR,,0.00,WeatherDisplay:10.37,2013-09-06 00:14:00,
2013-09-05 20:19:00,68.7,58.5,30.18,NNE,22,0.0,0.0,70,0.00,CLR,,0.00,WeatherDisplay:10.37,2013-09-06 00:19:00,
2013-09-05 20:24:00,68.5,58.4,30.18,NNE,22,0.0,0.0,70,0.00,CLR,,0.00,WeatherDisplay:10.37,2013-09-06 00:24:00,
2013-09-05 20:29:00,68.2,58.4,30.18,NNE,22,0.0,0.0,71,0.00,CLR,,0.00,WeatherDisplay:10.37,2013-09-06 00:29:00,
2013-09-05 20:34:00,67.8,58.5,30.18,NNE,22,0.0,0.0,72,0.00,CLR,,0.00,WeatherDisplay:10.37,2013-09-06 00:34:00,
2013-09-05 20:39:00,67.6,58.3,30.18,NNE,22,0.0,0.0,72,0.00,CLR,,0.00,WeatherDisplay:10.37,2013-09-06 00:39:00,
2013-09-05 20:44:00,67.3,58.3,30.18,NNE,22,0.0,0.0,73,0.00,CLR,,0.00,WeatherDisplay:10.37,2013-09-06 00:44:00,
2013-09-05 20:49:00,67.3,58.7,30.18,NNE,22,0.0,0.0,74,0.00,CLR,,0.00,WeatherDisplay:10.37,2013-09-06 00:49:00,
2013-09-05 20:54:00,66.7,58.6,30.18,NNE,22,0.0,0.0,75,0.00,CLR,,0.00,WeatherDisplay:10.37,2013-09-06 00:54:00,
2013-09-05 20:59:00,66.2,58.0,30.18,NNE,22,0.0,0.0,75,0.00,CLR,,0.00,WeatherDisplay:10.37,2013-09-06 00:59:00,
2013-09-05 21:04:00,66.0,58.2,30.19,NNE,22,0.0,0.0,76,0.00,CLR,,0.00,WeatherDisplay:10.37,2013-09-06 01:04:00,
2013-09-05 21:09:00,65.7,57.9,30.19,NNE,22,0.0,0.0,76,0.00,CLR,,0.00,WeatherDisplay:10.37,2013-09-06 01:09:00,
2013-09-05 21:14:00,65.3,57.9,30.19,NNE,22,0.0,0.0,77,0.00,CLR,,0.00,WeatherDisplay:10.37,2013-09-06 01:14:00,
2013-09-05 21:19:00,65.1,58.1,30.19,NNE,22,0.0,0.0,78,0.00,CLR,,0.00,WeatherDisplay:10.37,2013-09-06 01:19:00,
2013-09-05 21:24:00,64.9,57.9,30.19,NNE,22,0.0,0.0,78,0.00,CLR,,0.00,WeatherDisplay:10.37,2013-09-06 01:24:00,
2013-09-05 21:29:00,64.8,58.1,30.19,NNE,22,0.0,0.0,79,0.00,CLR,,0.00,WeatherDisplay:10.37,2013-09-06 01:29:00,
2013-09-05 21:34:00,64.6,57.9,30.19,NNE,22,0.0,0.0,79,0.00,CLR,,0.00,WeatherDisplay:10.37,2013-09-06 01:34:00,
2013-09-05 21:39:00,64.4,57.7,30.19,NNE,22,0.0,0.0,79,0.00,CLR,,0.00,WeatherDisplay:10.37,2013-09-06 01:39:00,
2013-09-05 21:44:00,64.2,57.6,30.19,NNE,22,0.0,0.0,79,0.00,CLR,,0.00,WeatherDisplay:10.37,2013-09-06 01:44:00,
2013-09-05 21:49:00,64.2,57.9,30.19,NNE,22,0.0,0.0,80,0.00,CLR,,0.00,WeatherDisplay:10.37,2013-09-06 01:49:00,
2013-09-05 21:54:00,64.0,57.7,30.19,NNE,22,0.0,0.0,80,0.00,CLR,,0.00,WeatherDisplay:10.37,2013-09-06 01:54:00,
2013-09-05 21:59:00,63.7,57.4,30.19,NNE,22,0.0,0.0,80,0.00,CLR,,0.00,WeatherDisplay:10.37,2013-09-06 01:59:00,
2013-09-05 22:04:00,63.7,57.7,30.20,NNE,22,0.0,0.0,81,0.00,CLR,,0.00,WeatherDisplay:10.37,2013-09-06 02:04:00,
2013-09-05 22:09:00,63.5,57.9,30.20,NNE,22,0.0,0.0,82,0.00,CLR,,0.00,WeatherDisplay:10.37,2013-09-06 02:09:00,
2013-09-05 22:14:00,63.3,57.7,30.19,NNE,22,0.0,0.0,82,0.00,CLR,,0.00,WeatherDisplay:10.37,2013-09-06 02:14:00,
2013-09-05 22:19:00,63.1,57.6,30.20,NNE,22,0.0,0.0,82,0.00,CLR,,0.00,WeatherDisplay:10.37,2013-09-06 02:19:00,
2013-09-05 22:24:00,63.1,57.6,30.20,NNE,22,0.0,0.0,82,0.00,CLR,,0.00,WeatherDisplay:10.37,2013-09-06 02:24:00,
2013-09-05 22:29:00,63.0,57.4,30.20,NNE,22,0.0,0.0,82,0.00,CLR,,0.00,WeatherDisplay:10.37,2013-09-06 02:29:00,
2013-09-05 22:34:00,62.8,57.5,30.20,NNE,22,0.0,0.0,83,0.00,CLR,,0.00,WeatherDisplay:10.37,2013-09-06 02:34:00,
2013-09-05 22:39:00,62.6,57.4,30.20,NNE,22,0.0,0.0,83,0.00,CLR,,0.00,WeatherDisplay:10.37,2013-09-06 02:39:00,
2013-09-05 22:44:00,62.4,57.5,30.20,NNE,22,0.0,0.0,84,0.00,CLR,,0.00,WeatherDisplay:10.37,2013-09-06 02:44:00,
2013-09-05 22:49:00,62.4,57.5,30.20,NNE,22,0.0,0.0,84,0.00,CLR,,0.00,WeatherDisplay:10.37,2013-09-06 02:49:00,
2013-09-05 22:55:00,62.2,57.3,30.20,NNE,22,0.0,0.0,84,0.00,CLR,,0.00,WeatherDisplay:10.37,2013-09-06 02:55:00,
2013-09-05 23:00:00,62.2,57.3,30.21,NNE,22,0.0,0.0,84,0.00,CLR,,0.00,WeatherDisplay:10.37,2013-09-06 03:00:00,
2013-09-05 23:05:00,62.1,57.2,30.21,NNE,22,0.0,0.0,84,0.00,CLR,,0.00,WeatherDisplay:10.37,2013-09-06 03:05:00,
2013-09-05 23:10:00,61.9,57.3,30.20,NNE,22,0.0,0.0,85,0.00,CLR,,0.00,WeatherDisplay:10.37,2013-09-06 03:10:00,
2013-09-05 23:15:00,61.5,57.0,30.21,NNE,22,0.0,0.0,85,0.00,CLR,,0.00,WeatherDisplay:10.37,2013-09-06 03:15:00,
2013-09-05 23:20:00,61.5,57.0,30.21,NNE,22,0.0,0.0,85,0.00,CLR,,0.00,WeatherDisplay:10.37,2013-09-06 03:20:00,
2013-09-05 23:25:00,61.3,56.8,30.21,NNE,22,0.0,0.0,85,0.00,CLR,,0.00,WeatherDisplay:10.37,2013-09-06 03:25:00,
2013-09-05 23:30:00,61.2,56.6,30.20,NNE,22,0.0,0.0,85,0.00,CLR,,0.00,WeatherDisplay:10.37,2013-09-06 03:30:00,
2013-09-05 23:35:00,61.2,56.6,30.21,NNE,22,0.0,0.0,85,0.00,CLR,,0.00,WeatherDisplay:10.37,2013-09-06 03:35:00,
2013-09-05 23:40:00,61.0,56.4,30.20,NNE,22,0.0,0.0,85,0.00,CLR,,0.00,WeatherDisplay:10.37,2013-09-06 03:40:00,
2013-09-05 23:45:00,60.8,56.6,30.21,NNE,22,0.0,0.0,86,0.00,CLR,,0.00,WeatherDisplay:10.37,2013-09-06 03:45:00,
2013-09-05 23:50:00,60.6,56.4,30.21,NNE,22,0.0,0.0,86,0.00,CLR,,0.00,WeatherDisplay:10.37,2013-09-06 03:50:00,
2013-09-05 23:55:00,60.6,56.4,30.21,NNE,22,0.0,0.0,86,0.00,CLR,,0.00,WeatherDisplay:10.37,2013-09-06 03:55:00,